sensor_id;sensor_type;location;lat;lon;timestamp;P1;durP1;ratioP1;P2;durP2;ratioP2
5821;SDS011;2937;48.562;8.022;2023-02-01T00:03:00;15.10;;;10.40;;
5821;SDS011;2937;48.562;8.022;2023-02-01T00:07:53;19.23;;;11.37;;
5821;SDS011;2937;48.562;8.022;2023-02-01T00:12:47;16.07;;;10.93;;
5821;SDS011;2937;48.562;8.022;2023-02-01T00:17:39;17.23;;;10.93;;
5821;SDS011;2937;48.562;8.022;2023-02-01T00:22:32;19.73;;;12.00;;
5821;SDS011;2937;48.562;8.022;2023-02-01T00:27:24;16.47;;;11.43;;
5821;SDS011;2937;48.562;8.022;2023-02-01T00:32:18;21.20;;;13.97;;
5821;SDS011;2937;48.562;8.022;2023-02-01T00:37:11;18.37;;;12.23;;
5821;SDS011;2937;48.562;8.022;2023-02-01T00:42:04;16.93;;;11.87;;
5821;SDS011;2937;48.562;8.022;2023-02-01T00:46:57;16.97;;;11.10;;
5821;SDS011;2937;48.562;8.022;2023-02-01T00:51:50;17.87;;;12.47;;
5821;SDS011;2937;48.562;8.022;2023-02-01T00:56:43;15.30;;;10.93;;
5821;SDS011;2937;48.562;8.022;2023-02-01T01:01:36;15.53;;;10.67;;
5821;SDS011;2937;48.562;8.022;2023-02-01T01:06:29;14.17;;;8.40;;
5821;SDS011;2937;48.562;8.022;2023-02-01T01:11:24;17.57;;;11.00;;
5821;SDS011;2937;48.562;8.022;2023-02-01T01:16:17;13.73;;;10.50;;
5821;SDS011;2937;48.562;8.022;2023-02-01T01:21:11;16.37;;;11.80;;
5821;SDS011;2937;48.562;8.022;2023-02-01T01:26:04;13.77;;;10.10;;
5821;SDS011;2937;48.562;8.022;2023-02-01T01:30:59;15.63;;;10.37;;
5821;SDS011;2937;48.562;8.022;2023-02-01T01:35:52;15.70;;;10.27;;
5821;SDS011;2937;48.562;8.022;2023-02-01T01:40:45;14.00;;;10.63;;
5821;SDS011;2937;48.562;8.022;2023-02-01T01:45:38;16.07;;;9.80;;
5821;SDS011;2937;48.562;8.022;2023-02-01T01:50:34;14.90;;;10.40;;
5821;SDS011;2937;48.562;8.022;2023-02-01T01:55:27;14.90;;;10.20;;
5821;SDS011;2937;48.562;8.022;2023-02-01T02:00:21;13.53;;;9.57;;
5821;SDS011;2937;48.562;8.022;2023-02-01T02:05:18;13.70;;;9.30;;
5821;SDS011;2937;48.562;8.022;2023-02-01T02:10:13;12.60;;;8.43;;
5821;SDS011;2937;48.562;8.022;2023-02-01T02:15:06;13.07;;;9.07;;
5821;SDS011;2937;48.562;8.022;2023-02-01T02:25:30;11.57;;;7.87;;
5821;SDS011;2937;48.562;8.022;2023-02-01T02:35:43;11.43;;;7.90;;
5821;SDS011;2937;48.562;8.022;2023-02-01T02:40:41;11.83;;;7.90;;
5821;SDS011;2937;48.562;8.022;2023-02-01T02:45:37;10.10;;;7.70;;
5821;SDS011;2937;48.562;8.022;2023-02-01T02:50:51;10.17;;;6.70;;
5821;SDS011;2937;48.562;8.022;2023-02-01T02:56:06;7.90;;;6.77;;
5821;SDS011;2937;48.562;8.022;2023-02-01T03:01:16;8.60;;;6.27;;
5821;SDS011;2937;48.562;8.022;2023-02-01T03:06:28;9.03;;;6.77;;
5821;SDS011;2937;48.562;8.022;2023-02-01T03:11:21;10.60;;;7.17;;
5821;SDS011;2937;48.562;8.022;2023-02-01T03:16:15;9.50;;;6.30;;
5821;SDS011;2937;48.562;8.022;2023-02-01T03:21:09;10.97;;;7.30;;
5821;SDS011;2937;48.562;8.022;2023-02-01T03:26:04;14.70;;;7.20;;
5821;SDS011;2937;48.562;8.022;2023-02-01T03:30:58;9.80;;;6.37;;
5821;SDS011;2937;48.562;8.022;2023-02-01T03:35:54;7.33;;;5.70;;
5821;SDS011;2937;48.562;8.022;2023-02-01T03:40:50;9.10;;;6.47;;
5821;SDS011;2937;48.562;8.022;2023-02-01T03:45:47;9.27;;;6.17;;
5821;SDS011;2937;48.562;8.022;2023-02-01T03:50:43;7.53;;;5.83;;
5821;SDS011;2937;48.562;8.022;2023-02-01T03:55:37;6.20;;;4.90;;
5821;SDS011;2937;48.562;8.022;2023-02-01T04:00:30;7.37;;;5.03;;
5821;SDS011;2937;48.562;8.022;2023-02-01T04:05:24;7.13;;;4.93;;
5821;SDS011;2937;48.562;8.022;2023-02-01T04:10:24;7.23;;;4.87;;
5821;SDS011;2937;48.562;8.022;2023-02-01T04:15:17;5.47;;;3.93;;
5821;SDS011;2937;48.562;8.022;2023-02-01T04:20:10;4.27;;;3.00;;
5821;SDS011;2937;48.562;8.022;2023-02-01T04:25:05;3.90;;;3.03;;
5821;SDS011;2937;48.562;8.022;2023-02-01T04:29:59;3.53;;;3.17;;
5821;SDS011;2937;48.562;8.022;2023-02-01T04:34:52;4.17;;;3.50;;
5821;SDS011;2937;48.562;8.022;2023-02-01T04:39:44;3.20;;;2.90;;
5821;SDS011;2937;48.562;8.022;2023-02-01T04:44:38;4.23;;;3.47;;
5821;SDS011;2937;48.562;8.022;2023-02-01T04:49:33;4.13;;;3.37;;
5821;SDS011;2937;48.562;8.022;2023-02-01T04:54:25;3.80;;;3.07;;
5821;SDS011;2937;48.562;8.022;2023-02-01T04:59:18;4.03;;;2.97;;
5821;SDS011;2937;48.562;8.022;2023-02-01T05:04:12;5.10;;;3.60;;
5821;SDS011;2937;48.562;8.022;2023-02-01T05:09:04;3.87;;;3.40;;
5821;SDS011;2937;48.562;8.022;2023-02-01T05:13:57;3.93;;;3.20;;
5821;SDS011;2937;48.562;8.022;2023-02-01T05:18:52;3.67;;;3.13;;
5821;SDS011;2937;48.562;8.022;2023-02-01T05:23:46;4.40;;;3.40;;
5821;SDS011;2937;48.562;8.022;2023-02-01T05:28:57;4.50;;;3.80;;
5821;SDS011;2937;48.562;8.022;2023-02-01T05:33:49;4.60;;;3.67;;
5821;SDS011;2937;48.562;8.022;2023-02-01T05:38:42;7.13;;;4.13;;
5821;SDS011;2937;48.562;8.022;2023-02-01T05:43:36;4.50;;;3.43;;
5821;SDS011;2937;48.562;8.022;2023-02-01T05:48:29;7.97;;;5.13;;
5821;SDS011;2937;48.562;8.022;2023-02-01T05:53:21;10.37;;;6.57;;
5821;SDS011;2937;48.562;8.022;2023-02-01T05:58:14;11.13;;;6.50;;
5821;SDS011;2937;48.562;8.022;2023-02-01T06:03:08;7.67;;;4.87;;
5821;SDS011;2937;48.562;8.022;2023-02-01T06:08:01;7.97;;;5.57;;
5821;SDS011;2937;48.562;8.022;2023-02-01T06:12:53;6.43;;;4.93;;
5821;SDS011;2937;48.562;8.022;2023-02-01T06:17:46;6.77;;;5.10;;
5821;SDS011;2937;48.562;8.022;2023-02-01T06:22:40;8.37;;;5.40;;
5821;SDS011;2937;48.562;8.022;2023-02-01T06:27:33;7.90;;;4.97;;
5821;SDS011;2937;48.562;8.022;2023-02-01T06:32:25;6.37;;;4.57;;
5821;SDS011;2937;48.562;8.022;2023-02-01T06:37:18;6.50;;;4.60;;
5821;SDS011;2937;48.562;8.022;2023-02-01T06:42:12;6.27;;;5.00;;
5821;SDS011;2937;48.562;8.022;2023-02-01T06:47:04;5.00;;;4.50;;
5821;SDS011;2937;48.562;8.022;2023-02-01T06:51:59;5.60;;;4.40;;
5821;SDS011;2937;48.562;8.022;2023-02-01T06:56:52;6.60;;;4.47;;
5821;SDS011;2937;48.562;8.022;2023-02-01T07:01:46;7.50;;;4.63;;
5821;SDS011;2937;48.562;8.022;2023-02-01T07:06:39;6.27;;;3.87;;
5821;SDS011;2937;48.562;8.022;2023-02-01T07:11:32;5.20;;;3.63;;
5821;SDS011;2937;48.562;8.022;2023-02-01T07:16:24;5.07;;;3.70;;
5821;SDS011;2937;48.562;8.022;2023-02-01T07:21:18;5.83;;;4.03;;
5821;SDS011;2937;48.562;8.022;2023-02-01T07:26:12;4.30;;;3.50;;
5821;SDS011;2937;48.562;8.022;2023-02-01T07:31:05;8.90;;;4.30;;
5821;SDS011;2937;48.562;8.022;2023-02-01T07:36:00;4.47;;;3.77;;
5821;SDS011;2937;48.562;8.022;2023-02-01T07:40:57;3.10;;;2.77;;
5821;SDS011;2937;48.562;8.022;2023-02-01T07:45:51;4.30;;;3.90;;
5821;SDS011;2937;48.562;8.022;2023-02-01T07:50:44;6.50;;;3.90;;
5821;SDS011;2937;48.562;8.022;2023-02-01T07:55:37;4.47;;;3.70;;
5821;SDS011;2937;48.562;8.022;2023-02-01T08:00:31;6.07;;;3.80;;
5821;SDS011;2937;48.562;8.022;2023-02-01T08:05:41;5.10;;;3.63;;
5821;SDS011;2937;48.562;8.022;2023-02-01T08:10:34;4.10;;;3.70;;
5821;SDS011;2937;48.562;8.022;2023-02-01T08:15:27;4.20;;;3.47;;
5821;SDS011;2937;48.562;8.022;2023-02-01T08:20:21;3.30;;;2.47;;
5821;SDS011;2937;48.562;8.022;2023-02-01T08:25:15;5.50;;;3.60;;
5821;SDS011;2937;48.562;8.022;2023-02-01T08:30:08;4.87;;;3.00;;
5821;SDS011;2937;48.562;8.022;2023-02-01T08:35:02;5.63;;;3.40;;
5821;SDS011;2937;48.562;8.022;2023-02-01T08:39:56;5.20;;;3.30;;
5821;SDS011;2937;48.562;8.022;2023-02-01T08:44:48;7.60;;;3.80;;
5821;SDS011;2937;48.562;8.022;2023-02-01T08:49:41;8.43;;;3.53;;
5821;SDS011;2937;48.562;8.022;2023-02-01T08:54:33;6.83;;;3.63;;
5821;SDS011;2937;48.562;8.022;2023-02-01T08:59:27;6.70;;;4.40;;
5821;SDS011;2937;48.562;8.022;2023-02-01T09:04:20;5.00;;;3.83;;
5821;SDS011;2937;48.562;8.022;2023-02-01T09:09:13;8.67;;;3.77;;
5821;SDS011;2937;48.562;8.022;2023-02-01T09:14:06;7.20;;;4.27;;
5821;SDS011;2937;48.562;8.022;2023-02-01T09:19:00;7.30;;;3.73;;
5821;SDS011;2937;48.562;8.022;2023-02-01T09:24:12;10.33;;;3.90;;
5821;SDS011;2937;48.562;8.022;2023-02-01T09:29:05;6.43;;;3.83;;
5821;SDS011;2937;48.562;8.022;2023-02-01T09:34:03;5.37;;;3.53;;
5821;SDS011;2937;48.562;8.022;2023-02-01T09:38:56;5.40;;;4.20;;
5821;SDS011;2937;48.562;8.022;2023-02-01T09:43:51;6.30;;;4.33;;
5821;SDS011;2937;48.562;8.022;2023-02-01T09:48:47;7.57;;;3.83;;
5821;SDS011;2937;48.562;8.022;2023-02-01T09:53:43;10.00;;;4.33;;
5821;SDS011;2937;48.562;8.022;2023-02-01T09:58:37;8.10;;;4.37;;
5821;SDS011;2937;48.562;8.022;2023-02-01T10:03:32;7.17;;;4.67;;
5821;SDS011;2937;48.562;8.022;2023-02-01T10:08:26;5.90;;;4.63;;
5821;SDS011;2937;48.562;8.022;2023-02-01T10:13:31;5.20;;;3.57;;
5821;SDS011;2937;48.562;8.022;2023-02-01T10:18:28;6.10;;;4.10;;
5821;SDS011;2937;48.562;8.022;2023-02-01T10:23:32;9.00;;;4.43;;
5821;SDS011;2937;48.562;8.022;2023-02-01T10:28:28;7.03;;;4.47;;
5821;SDS011;2937;48.562;8.022;2023-02-01T10:33:24;5.93;;;4.23;;
5821;SDS011;2937;48.562;8.022;2023-02-01T10:38:26;5.00;;;4.10;;
5821;SDS011;2937;48.562;8.022;2023-02-01T10:43:19;8.20;;;4.30;;
5821;SDS011;2937;48.562;8.022;2023-02-01T10:48:12;7.07;;;4.10;;
5821;SDS011;2937;48.562;8.022;2023-02-01T10:53:07;6.47;;;4.40;;
5821;SDS011;2937;48.562;8.022;2023-02-01T10:58:03;7.30;;;4.60;;
5821;SDS011;2937;48.562;8.022;2023-02-01T11:02:56;6.27;;;4.20;;
5821;SDS011;2937;48.562;8.022;2023-02-01T11:07:49;7.60;;;3.53;;
5821;SDS011;2937;48.562;8.022;2023-02-01T11:12:45;6.57;;;4.47;;
5821;SDS011;2937;48.562;8.022;2023-02-01T11:17:46;8.50;;;4.10;;
5821;SDS011;2937;48.562;8.022;2023-02-01T11:22:44;5.93;;;3.67;;
5821;SDS011;2937;48.562;8.022;2023-02-01T11:27:37;5.00;;;3.30;;
5821;SDS011;2937;48.562;8.022;2023-02-01T11:32:46;7.20;;;3.73;;
5821;SDS011;2937;48.562;8.022;2023-02-01T11:37:40;8.33;;;3.80;;
5821;SDS011;2937;48.562;8.022;2023-02-01T11:42:33;10.13;;;4.40;;
5821;SDS011;2937;48.562;8.022;2023-02-01T11:47:26;10.87;;;4.70;;
5821;SDS011;2937;48.562;8.022;2023-02-01T11:57:35;9.73;;;4.33;;
5821;SDS011;2937;48.562;8.022;2023-02-01T12:02:37;6.43;;;4.00;;
5821;SDS011;2937;48.562;8.022;2023-02-01T12:07:36;6.30;;;3.90;;
5821;SDS011;2937;48.562;8.022;2023-02-01T12:12:37;8.63;;;4.40;;
5821;SDS011;2937;48.562;8.022;2023-02-01T12:22:46;8.93;;;5.03;;
5821;SDS011;2937;48.562;8.022;2023-02-01T12:32:56;8.27;;;4.63;;
5821;SDS011;2937;48.562;8.022;2023-02-01T12:38:02;7.40;;;5.10;;
5821;SDS011;2937;48.562;8.022;2023-02-01T12:42:59;7.00;;;4.40;;
5821;SDS011;2937;48.562;8.022;2023-02-01T12:47:55;8.90;;;4.87;;
5821;SDS011;2937;48.562;8.022;2023-02-01T12:52:51;11.80;;;4.90;;
5821;SDS011;2937;48.562;8.022;2023-02-01T12:57:45;9.43;;;4.87;;
5821;SDS011;2937;48.562;8.022;2023-02-01T13:02:40;11.63;;;5.17;;
5821;SDS011;2937;48.562;8.022;2023-02-01T13:07:36;5.73;;;3.57;;
5821;SDS011;2937;48.562;8.022;2023-02-01T13:12:32;10.80;;;4.97;;
5821;SDS011;2937;48.562;8.022;2023-02-01T13:17:32;6.80;;;4.40;;
5821;SDS011;2937;48.562;8.022;2023-02-01T13:22:27;9.30;;;4.33;;
5821;SDS011;2937;48.562;8.022;2023-02-01T13:27:22;11.60;;;4.57;;
5821;SDS011;2937;48.562;8.022;2023-02-01T13:37:47;10.43;;;4.53;;
5821;SDS011;2937;48.562;8.022;2023-02-01T13:42:45;9.33;;;5.40;;
5821;SDS011;2937;48.562;8.022;2023-02-01T13:47:40;14.13;;;4.80;;
5821;SDS011;2937;48.562;8.022;2023-02-01T13:52:36;7.93;;;4.77;;
5821;SDS011;2937;48.562;8.022;2023-02-01T13:57:35;13.30;;;4.70;;
5821;SDS011;2937;48.562;8.022;2023-02-01T14:02:50;9.33;;;5.27;;
5821;SDS011;2937;48.562;8.022;2023-02-01T14:08:09;10.47;;;5.13;;
5821;SDS011;2937;48.562;8.022;2023-02-01T14:13:11;11.13;;;5.50;;
5821;SDS011;2937;48.562;8.022;2023-02-01T14:18:07;11.60;;;4.80;;
5821;SDS011;2937;48.562;8.022;2023-02-01T14:23:24;10.30;;;4.43;;
5821;SDS011;2937;48.562;8.022;2023-02-01T14:28:22;10.60;;;5.00;;
5821;SDS011;2937;48.562;8.022;2023-02-01T14:33:22;13.33;;;5.40;;
5821;SDS011;2937;48.562;8.022;2023-02-01T14:38:16;9.17;;;4.30;;
5821;SDS011;2937;48.562;8.022;2023-02-01T14:43:08;12.60;;;4.33;;
5821;SDS011;2937;48.562;8.022;2023-02-01T14:48:43;10.53;;;4.60;;
5821;SDS011;2937;48.562;8.022;2023-02-01T14:53:36;11.60;;;4.77;;
5821;SDS011;2937;48.562;8.022;2023-02-01T14:58:32;15.10;;;5.17;;
5821;SDS011;2937;48.562;8.022;2023-02-01T15:03:35;13.60;;;5.47;;
5821;SDS011;2937;48.562;8.022;2023-02-01T15:08:32;9.37;;;4.00;;
5821;SDS011;2937;48.562;8.022;2023-02-01T15:13:26;14.10;;;7.20;;
5821;SDS011;2937;48.562;8.022;2023-02-01T15:18:19;11.37;;;4.30;;
5821;SDS011;2937;48.562;8.022;2023-02-01T15:23:15;7.83;;;4.20;;
5821;SDS011;2937;48.562;8.022;2023-02-01T15:28:11;14.30;;;4.70;;
5821;SDS011;2937;48.562;8.022;2023-02-01T15:33:06;11.93;;;4.53;;
5821;SDS011;2937;48.562;8.022;2023-02-01T15:43:11;10.83;;;3.97;;
5821;SDS011;2937;48.562;8.022;2023-02-01T15:48:19;10.50;;;4.00;;
5821;SDS011;2937;48.562;8.022;2023-02-01T15:53:13;10.80;;;4.13;;
5821;SDS011;2937;48.562;8.022;2023-02-01T15:58:07;10.73;;;3.83;;
5821;SDS011;2937;48.562;8.022;2023-02-01T16:03:02;11.73;;;4.37;;
5821;SDS011;2937;48.562;8.022;2023-02-01T16:07:56;9.00;;;4.07;;
5821;SDS011;2937;48.562;8.022;2023-02-01T16:12:54;12.23;;;4.50;;
5821;SDS011;2937;48.562;8.022;2023-02-01T16:17:51;12.73;;;4.77;;
5821;SDS011;2937;48.562;8.022;2023-02-01T16:22:45;15.50;;;5.97;;
5821;SDS011;2937;48.562;8.022;2023-02-01T16:27:38;9.87;;;4.30;;
5821;SDS011;2937;48.562;8.022;2023-02-01T16:32:30;7.40;;;3.23;;
5821;SDS011;2937;48.562;8.022;2023-02-01T16:37:24;7.90;;;3.63;;
5821;SDS011;2937;48.562;8.022;2023-02-01T16:42:20;7.27;;;3.27;;
5821;SDS011;2937;48.562;8.022;2023-02-01T16:47:14;15.43;;;4.77;;
5821;SDS011;2937;48.562;8.022;2023-02-01T16:52:11;10.37;;;4.00;;
5821;SDS011;2937;48.562;8.022;2023-02-01T16:57:04;9.97;;;4.17;;
5821;SDS011;2937;48.562;8.022;2023-02-01T17:01:58;11.57;;;4.70;;
5821;SDS011;2937;48.562;8.022;2023-02-01T17:06:51;8.90;;;4.40;;
5821;SDS011;2937;48.562;8.022;2023-02-01T17:11:43;9.20;;;4.50;;
5821;SDS011;2937;48.562;8.022;2023-02-01T17:16:36;12.70;;;4.60;;
5821;SDS011;2937;48.562;8.022;2023-02-01T17:21:34;11.87;;;4.10;;
5821;SDS011;2937;48.562;8.022;2023-02-01T17:26:28;13.83;;;4.70;;
5821;SDS011;2937;48.562;8.022;2023-02-01T17:31:20;10.20;;;4.60;;
5821;SDS011;2937;48.562;8.022;2023-02-01T17:36:15;9.43;;;4.53;;
5821;SDS011;2937;48.562;8.022;2023-02-01T17:41:10;12.27;;;5.07;;
5821;SDS011;2937;48.562;8.022;2023-02-01T17:46:05;11.60;;;5.77;;
5821;SDS011;2937;48.562;8.022;2023-02-01T17:50:58;15.80;;;4.93;;
5821;SDS011;2937;48.562;8.022;2023-02-01T17:55:52;13.33;;;5.07;;
5821;SDS011;2937;48.562;8.022;2023-02-01T18:00:46;8.77;;;3.80;;
5821;SDS011;2937;48.562;8.022;2023-02-01T18:05:40;9.47;;;4.60;;
5821;SDS011;2937;48.562;8.022;2023-02-01T18:10:35;9.50;;;4.20;;
5821;SDS011;2937;48.562;8.022;2023-02-01T18:15:28;13.07;;;5.60;;
5821;SDS011;2937;48.562;8.022;2023-02-01T18:20:22;11.10;;;4.33;;
5821;SDS011;2937;48.562;8.022;2023-02-01T18:25:17;10.13;;;5.20;;
5821;SDS011;2937;48.562;8.022;2023-02-01T18:30:11;9.30;;;4.60;;
5821;SDS011;2937;48.562;8.022;2023-02-01T18:35:10;12.23;;;4.70;;
5821;SDS011;2937;48.562;8.022;2023-02-01T18:40:07;13.87;;;5.10;;
5821;SDS011;2937;48.562;8.022;2023-02-01T18:45:02;10.00;;;5.07;;
5821;SDS011;2937;48.562;8.022;2023-02-01T18:49:54;11.00;;;4.67;;
5821;SDS011;2937;48.562;8.022;2023-02-01T18:54:47;11.60;;;4.40;;
5821;SDS011;2937;48.562;8.022;2023-02-01T18:59:51;12.07;;;4.73;;
5821;SDS011;2937;48.562;8.022;2023-02-01T19:04:44;9.63;;;4.90;;
5821;SDS011;2937;48.562;8.022;2023-02-01T19:09:37;11.57;;;4.50;;
5821;SDS011;2937;48.562;8.022;2023-02-01T19:14:33;11.60;;;3.60;;
5821;SDS011;2937;48.562;8.022;2023-02-01T19:19:30;9.20;;;4.27;;
5821;SDS011;2937;48.562;8.022;2023-02-01T19:24:23;13.10;;;4.10;;
5821;SDS011;2937;48.562;8.022;2023-02-01T19:29:18;6.90;;;3.97;;
5821;SDS011;2937;48.562;8.022;2023-02-01T19:34:20;12.30;;;4.00;;
5821;SDS011;2937;48.562;8.022;2023-02-01T19:39:35;15.67;;;4.17;;
5821;SDS011;2937;48.562;8.022;2023-02-01T19:44:37;13.40;;;4.43;;
5821;SDS011;2937;48.562;8.022;2023-02-01T19:49:33;8.77;;;4.57;;
5821;SDS011;2937;48.562;8.022;2023-02-01T19:54:38;11.80;;;5.03;;
5821;SDS011;2937;48.562;8.022;2023-02-01T19:59:31;6.93;;;4.23;;
5821;SDS011;2937;48.562;8.022;2023-02-01T20:04:24;9.50;;;3.93;;
5821;SDS011;2937;48.562;8.022;2023-02-01T20:09:24;7.30;;;3.57;;
5821;SDS011;2937;48.562;8.022;2023-02-01T20:14:21;9.70;;;4.10;;
5821;SDS011;2937;48.562;8.022;2023-02-01T20:19:17;9.87;;;4.13;;
5821;SDS011;2937;48.562;8.022;2023-02-01T20:24:17;9.60;;;4.00;;
5821;SDS011;2937;48.562;8.022;2023-02-01T20:29:12;10.10;;;4.17;;
5821;SDS011;2937;48.562;8.022;2023-02-01T20:34:08;10.50;;;4.70;;
5821;SDS011;2937;48.562;8.022;2023-02-01T20:39:03;15.80;;;4.17;;
5821;SDS011;2937;48.562;8.022;2023-02-01T20:44:07;12.87;;;4.80;;
5821;SDS011;2937;48.562;8.022;2023-02-01T20:49:00;7.40;;;4.07;;
5821;SDS011;2937;48.562;8.022;2023-02-01T20:53:58;14.50;;;4.70;;
5821;SDS011;2937;48.562;8.022;2023-02-01T20:59:08;9.60;;;4.50;;
5821;SDS011;2937;48.562;8.022;2023-02-01T21:04:02;11.60;;;3.83;;
5821;SDS011;2937;48.562;8.022;2023-02-01T21:08:57;11.40;;;5.10;;
5821;SDS011;2937;48.562;8.022;2023-02-01T21:13:49;12.83;;;5.97;;
5821;SDS011;2937;48.562;8.022;2023-02-01T21:18:43;10.63;;;4.50;;
5821;SDS011;2937;48.562;8.022;2023-02-01T21:23:35;13.70;;;4.50;;
5821;SDS011;2937;48.562;8.022;2023-02-01T21:28:36;8.47;;;3.50;;
5821;SDS011;2937;48.562;8.022;2023-02-01T21:33:29;9.30;;;4.20;;
5821;SDS011;2937;48.562;8.022;2023-02-01T21:38:22;9.70;;;4.67;;
5821;SDS011;2937;48.562;8.022;2023-02-01T21:43:15;14.23;;;4.70;;
5821;SDS011;2937;48.562;8.022;2023-02-01T21:48:09;7.53;;;3.90;;
5821;SDS011;2937;48.562;8.022;2023-02-01T21:53:01;13.93;;;4.90;;
5821;SDS011;2937;48.562;8.022;2023-02-01T21:57:57;9.93;;;5.27;;
5821;SDS011;2937;48.562;8.022;2023-02-01T22:02:50;11.37;;;5.50;;
5821;SDS011;2937;48.562;8.022;2023-02-01T22:07:44;10.30;;;5.13;;
5821;SDS011;2937;48.562;8.022;2023-02-01T22:12:37;11.77;;;4.90;;
5821;SDS011;2937;48.562;8.022;2023-02-01T22:17:29;10.97;;;4.67;;
5821;SDS011;2937;48.562;8.022;2023-02-01T22:22:22;11.83;;;5.27;;
5821;SDS011;2937;48.562;8.022;2023-02-01T22:27:16;9.47;;;4.43;;
5821;SDS011;2937;48.562;8.022;2023-02-01T22:32:11;11.87;;;4.97;;
5821;SDS011;2937;48.562;8.022;2023-02-01T22:37:04;14.63;;;5.40;;
5821;SDS011;2937;48.562;8.022;2023-02-01T22:41:57;12.23;;;5.40;;
5821;SDS011;2937;48.562;8.022;2023-02-01T22:46:51;14.07;;;5.13;;
5821;SDS011;2937;48.562;8.022;2023-02-01T22:51:44;10.80;;;5.23;;
5821;SDS011;2937;48.562;8.022;2023-02-01T22:56:37;9.40;;;4.40;;
5821;SDS011;2937;48.562;8.022;2023-02-01T23:01:30;16.23;;;4.93;;
5821;SDS011;2937;48.562;8.022;2023-02-01T23:06:24;10.90;;;3.90;;
5821;SDS011;2937;48.562;8.022;2023-02-01T23:11:17;12.47;;;4.60;;
5821;SDS011;2937;48.562;8.022;2023-02-01T23:16:11;12.03;;;4.37;;
5821;SDS011;2937;48.562;8.022;2023-02-01T23:21:05;12.17;;;4.73;;
5821;SDS011;2937;48.562;8.022;2023-02-01T23:25:59;8.90;;;3.87;;
5821;SDS011;2937;48.562;8.022;2023-02-01T23:30:51;11.67;;;4.27;;
5821;SDS011;2937;48.562;8.022;2023-02-01T23:35:52;9.20;;;4.37;;
5821;SDS011;2937;48.562;8.022;2023-02-01T23:40:45;10.00;;;4.20;;
5821;SDS011;2937;48.562;8.022;2023-02-01T23:45:39;9.07;;;4.63;;
5821;SDS011;2937;48.562;8.022;2023-02-01T23:50:31;8.80;;;4.53;;
5821;SDS011;2937;48.562;8.022;2023-02-01T23:55:24;11.60;;;4.40;;
